createdAt,value
2023-01-26T00:01:29.262Z,40.33
2023-01-26T00:03:58.251Z,36.50
2023-01-26T00:06:26.645Z,35.63
2023-01-26T00:08:57.195Z,40.27
2023-01-26T00:11:27.708Z,44.07
2023-01-26T00:13:55.859Z,44.20
2023-01-26T00:16:23.931Z,38.30
2023-01-26T00:18:52.132Z,34.27
2023-01-26T00:21:21.556Z,43.93
2023-01-26T00:23:50.480Z,38.83
2023-01-26T00:26:22.635Z,37.57
2023-01-26T00:28:51.339Z,38.93
2023-01-26T00:31:21.451Z,44.27
2023-01-26T00:33:49.696Z,39.97
2023-01-26T00:36:17.620Z,39.47
2023-01-26T00:38:45.519Z,40.60
2023-01-26T00:41:34.340Z,38.43
2023-01-26T00:44:03.753Z,39.20
2023-01-26T00:46:31.687Z,43.23
2023-01-26T00:49:00.926Z,37.33
2023-01-26T00:51:29.018Z,37.97
2023-01-26T00:53:56.923Z,41.53
2023-01-26T00:56:28.110Z,32.43
2023-01-26T00:58:56.154Z,35.47
2023-01-26T01:01:25.437Z,35.07
2023-01-26T01:03:53.350Z,42.23
2023-01-26T01:06:21.344Z,38.53
2023-01-26T01:08:49.251Z,40.93
2023-01-26T01:11:17.154Z,40.03
2023-01-26T01:13:45.187Z,32.50
2023-01-26T01:16:14.701Z,33.37
2023-01-26T01:18:44.348Z,32.03
2023-01-26T01:21:15.052Z,36.53
2023-01-26T01:23:43.495Z,30.80
2023-01-26T01:26:11.613Z,34.97
2023-01-26T01:28:40.078Z,34.90
2023-01-26T01:31:08.397Z,31.53
2023-01-26T01:33:36.485Z,39.33
2023-01-26T01:36:07.864Z,38.30
2023-01-26T01:38:36.239Z,31.17
2023-01-26T01:41:04.448Z,31.10
2023-01-26T01:43:32.624Z,33.17
2023-01-26T01:46:01.948Z,33.13
2023-01-26T01:48:32.909Z,36.30
2023-01-26T01:51:06.954Z,40.63
2023-01-26T01:53:37.857Z,36.13
2023-01-26T01:56:10.875Z,39.47
2023-01-26T01:58:41.564Z,41.30
2023-01-26T02:01:09.672Z,36.27
2023-01-26T02:03:38.571Z,36.83
2023-01-26T02:06:10.054Z,38.73
2023-01-26T02:08:39.912Z,29.13
2023-01-26T02:11:09.774Z,28.30
2023-01-26T02:13:39.308Z,37.97
2023-01-26T02:16:07.700Z,31.07
2023-01-26T02:18:35.689Z,36.13
2023-01-26T02:21:05.186Z,35.07
2023-01-26T02:23:42.008Z,30.43
2023-01-26T02:26:13.259Z,29.37
2023-01-26T02:28:41.875Z,36.13
2023-01-26T02:31:11.410Z,35.23
2023-01-26T02:33:39.415Z,34.27
2023-01-26T02:36:08.982Z,42.63
2023-01-26T02:38:42.084Z,32.70
2023-01-26T02:41:13.556Z,30.30
2023-01-26T02:43:41.078Z,31.50
2023-01-26T02:46:09.049Z,30.57
2023-01-26T02:48:54.459Z,31.10
2023-01-26T02:51:22.497Z,32.80
2023-01-26T02:53:50.374Z,29.33
2023-01-26T02:56:18.627Z,29.90
2023-01-26T02:58:46.574Z,34.63
2023-01-26T03:01:14.507Z,34.03
2023-01-26T03:03:45.676Z,26.03
2023-01-26T03:06:15.259Z,33.90
2023-01-26T03:08:43.270Z,34.37
2023-01-26T03:11:11.153Z,33.90
2023-01-26T03:13:40.445Z,32.43
2023-01-26T03:16:10.291Z,29.83
2023-01-26T03:18:55.501Z,32.27
2023-01-26T03:21:41.202Z,31.13
2023-01-26T03:24:29.943Z,35.93
2023-01-26T03:27:15.179Z,31.60
2023-01-26T03:29:44.610Z,27.30
2023-01-26T03:32:12.737Z,30.47
2023-01-26T03:34:40.633Z,31.53
2023-01-26T03:37:08.590Z,30.50
2023-01-26T03:39:53.820Z,28.97
2023-01-26T03:42:39.418Z,27.50
2023-01-26T03:45:26.877Z,31.10
2023-01-26T03:48:12.359Z,31.63
2023-01-26T03:50:57.691Z,29.90
2023-01-26T03:53:42.989Z,28.33
2023-01-26T03:56:18.415Z,26.43
2023-01-26T03:58:46.784Z,29.17
2023-01-26T04:01:20.057Z,24.13
2023-01-26T04:04:06.698Z,31.13
2023-01-26T04:06:52.812Z,24.47
2023-01-26T04:09:21.123Z,19.33
2023-01-26T04:11:49.580Z,25.10
2023-01-26T04:14:38.175Z,21.93
2023-01-26T04:17:37.615Z,26.67
2023-01-26T04:20:23.983Z,27.23
2023-01-26T04:22:51.892Z,25.53
2023-01-26T04:25:21.715Z,24.93
2023-01-26T04:27:49.662Z,28.50
2023-01-26T04:30:19.027Z,28.83
2023-01-26T04:32:48.372Z,28.10
2023-01-26T04:35:16.340Z,23.00
2023-01-26T04:37:44.314Z,29.93
2023-01-26T04:40:13.430Z,25.40
2023-01-26T04:42:41.593Z,27.03
2023-01-26T04:45:11.534Z,25.37
2023-01-26T04:47:39.508Z,26.70
2023-01-26T04:50:11.001Z,75.80
2023-01-26T04:52:39.007Z,56.10
2023-01-26T04:55:07.379Z,25.27
2023-01-26T04:57:35.311Z,24.10
2023-01-26T05:00:04.851Z,28.03
2023-01-26T05:02:32.767Z,23.83
2023-01-26T05:05:00.818Z,25.40
2023-01-26T05:07:30.093Z,26.73
2023-01-26T05:09:57.977Z,27.23
2023-01-26T05:12:34.600Z,22.87
2023-01-26T05:15:02.496Z,19.80
2023-01-26T05:17:30.401Z,24.23
2023-01-26T05:19:58.378Z,23.70
2023-01-26T05:22:26.291Z,25.77
2023-01-26T05:24:55.618Z,21.97
2023-01-26T05:27:23.518Z,24.90
2023-01-26T05:29:52.247Z,25.43
2023-01-26T05:32:20.555Z,24.47
2023-01-26T05:34:48.455Z,23.60
2023-01-26T05:37:16.350Z,23.20
2023-01-26T05:39:44.279Z,23.23
2023-01-26T05:42:14.004Z,21.40
2023-01-26T05:44:41.928Z,22.60
2023-01-26T05:47:09.869Z,25.37
2023-01-26T05:49:38.829Z,23.00
2023-01-26T05:52:10.561Z,23.20
2023-01-26T05:54:38.504Z,21.13
2023-01-26T05:57:06.423Z,21.57
2023-01-26T05:59:35.772Z,20.07
2023-01-26T06:02:03.669Z,21.90
2023-01-26T06:04:31.890Z,23.10
2023-01-26T06:07:00.931Z,21.53
2023-01-26T06:09:28.884Z,21.63
2023-01-26T06:11:57.917Z,20.30
2023-01-26T06:14:25.864Z,20.97
2023-01-26T06:16:56.788Z,20.67
2023-01-26T06:19:24.846Z,18.00
2023-01-26T06:21:53.540Z,17.60
2023-01-26T06:24:21.557Z,23.70
2023-01-26T06:26:49.851Z,27.87
2023-01-26T06:29:17.855Z,18.67
2023-01-26T06:31:45.827Z,26.20
2023-01-26T06:34:15.456Z,25.37
2023-01-26T06:36:43.398Z,24.87
2023-01-26T06:39:13.218Z,17.43
2023-01-26T06:41:41.462Z,20.33
2023-01-26T06:44:09.944Z,18.03
2023-01-26T06:46:37.975Z,18.73
2023-01-26T06:49:06.314Z,20.37
2023-01-26T06:51:47.672Z,22.13
2023-01-26T06:54:16.423Z,19.67
2023-01-26T06:56:44.324Z,18.00
2023-01-26T06:59:12.262Z,20.50
2023-01-26T07:01:42.882Z,22.70
2023-01-26T07:04:10.770Z,17.50
2023-01-26T07:06:40.119Z,25.40
2023-01-26T07:09:08.098Z,24.23
2023-01-26T07:11:36.004Z,23.77
2023-01-26T07:14:03.923Z,20.53
2023-01-26T07:16:33.738Z,18.70
2023-01-26T07:19:01.809Z,21.30
2023-01-26T07:21:29.969Z,20.03
2023-01-26T07:23:59.250Z,18.00
2023-01-26T07:26:27.225Z,26.07
2023-01-26T07:28:55.252Z,20.33
2023-01-26T07:31:23.236Z,18.53
2023-01-26T07:33:51.356Z,17.93
2023-01-26T07:36:19.318Z,19.93
2023-01-26T07:38:47.201Z,14.47
2023-01-26T07:41:16.481Z,16.00
2023-01-26T07:43:44.538Z,17.10
2023-01-26T07:46:12.634Z,16.10
2023-01-26T07:48:41.787Z,15.57
2023-01-26T07:51:11.290Z,14.73
2023-01-26T07:53:41.174Z,19.30
2023-01-26T07:56:11.097Z,15.27
2023-01-26T07:58:40.743Z,14.97
2023-01-26T08:01:10.977Z,18.10
2023-01-26T08:03:38.947Z,12.90
2023-01-26T08:06:09.631Z,16.93
2023-01-26T08:08:40.978Z,16.30
2023-01-26T08:11:09.370Z,15.13
2023-01-26T08:13:37.371Z,15.03
2023-01-26T08:16:09.618Z,15.10
2023-01-26T08:18:37.616Z,14.73
2023-01-26T08:21:06.193Z,16.23
2023-01-26T08:23:34.753Z,19.40
2023-01-26T08:26:03.367Z,15.57
2023-01-26T08:28:31.305Z,14.33
2023-01-26T08:31:06.488Z,13.17
2023-01-26T08:33:35.743Z,14.30
2023-01-26T08:36:04.058Z,16.43
2023-01-26T08:38:32.730Z,14.47
2023-01-26T08:41:00.713Z,14.20
2023-01-26T08:43:28.906Z,18.17
2023-01-26T08:45:56.896Z,14.37
2023-01-26T08:48:26.467Z,10.57
2023-01-26T08:50:55.204Z,15.20
2023-01-26T08:53:23.480Z,13.40
2023-01-26T08:55:51.989Z,11.00
2023-01-26T08:58:20.521Z,12.33
2023-01-26T09:00:49.182Z,15.73
2023-01-26T09:03:17.220Z,14.40
2023-01-26T09:05:46.505Z,10.00
2023-01-26T09:08:14.448Z,12.40
2023-01-26T09:10:45.192Z,10.93
2023-01-26T09:13:13.199Z,15.17
2023-01-26T09:15:41.157Z,10.83
2023-01-26T09:18:09.037Z,10.73
2023-01-26T09:20:36.945Z,13.57
2023-01-26T09:23:06.219Z,12.20
2023-01-26T09:25:37.530Z,10.60
2023-01-26T09:28:06.624Z,11.40
2023-01-26T09:30:35.458Z,11.37
2023-01-26T09:33:05.140Z,9.80
2023-01-26T09:35:33.267Z,9.87
2023-01-26T09:38:01.215Z,11.80
2023-01-26T09:40:38.422Z,12.10
2023-01-26T09:43:16.200Z,9.00
2023-01-26T09:45:49.435Z,10.07
2023-01-26T09:48:25.459Z,17.53
2023-01-26T09:50:57.947Z,8.80
2023-01-26T09:53:28.416Z,10.03
2023-01-26T09:55:57.871Z,11.27
2023-01-26T09:58:33.082Z,12.60
2023-01-26T10:01:02.433Z,11.77
2023-01-26T10:03:34.071Z,11.47
2023-01-26T10:06:06.307Z,12.83
2023-01-26T10:08:36.417Z,10.40
2023-01-26T10:11:09.003Z,16.37
2023-01-26T10:13:37.182Z,23.07
2023-01-26T10:16:08.579Z,16.27
2023-01-26T10:18:40.659Z,11.50
2023-01-26T10:21:09.048Z,9.60
2023-01-26T10:23:37.244Z,10.70
2023-01-26T10:26:14.180Z,10.23
2023-01-26T10:28:43.050Z,16.40
2023-01-26T10:31:15.740Z,11.33
2023-01-26T10:33:50.120Z,13.87
2023-01-26T10:36:18.216Z,11.97
2023-01-26T10:38:46.722Z,17.37
2023-01-26T10:41:27.209Z,15.27
2023-01-26T10:43:56.525Z,18.00
2023-01-26T10:46:26.522Z,11.87
2023-01-26T10:48:55.105Z,10.67
2023-01-26T10:51:29.695Z,15.63
2023-01-26T10:54:20.862Z,35.87
2023-01-26T10:56:52.688Z,10.63
2023-01-26T10:59:29.364Z,20.00
2023-01-26T11:01:58.600Z,14.43
2023-01-26T11:04:27.156Z,17.37
2023-01-26T11:06:55.333Z,18.80
2023-01-26T11:09:27.513Z,20.83
2023-01-26T11:12:02.388Z,30.10
2023-01-26T11:14:30.982Z,13.67
2023-01-26T11:17:02.864Z,20.67
2023-01-26T11:19:43.910Z,17.60
2023-01-26T11:22:14.888Z,9.70
2023-01-26T11:24:47.692Z,17.40
2023-01-26T11:27:30.024Z,23.90
2023-01-26T11:30:28.249Z,16.73
2023-01-26T11:33:01.818Z,15.23
2023-01-26T11:35:33.906Z,11.50
2023-01-26T11:38:11.050Z,28.23
2023-01-26T11:40:42.689Z,12.07
2023-01-26T11:43:48.464Z,12.60
2023-01-26T11:46:37.578Z,26.73
2023-01-26T11:49:16.241Z,23.70
2023-01-26T11:51:52.050Z,17.77
2023-01-26T11:54:29.643Z,16.13
2023-01-26T11:57:04.637Z,16.80
2023-01-26T11:59:37.585Z,16.03
2023-01-26T12:02:15.226Z,24.53
2023-01-26T12:04:45.513Z,14.87
2023-01-26T12:07:16.610Z,20.00
2023-01-26T12:09:47.282Z,16.67
2023-01-26T12:12:18.626Z,18.37
2023-01-26T12:14:52.490Z,13.70
2023-01-26T12:17:31.659Z,22.30
2023-01-26T12:20:05.669Z,17.60
2023-01-26T12:22:36.411Z,25.63
2023-01-26T12:25:19.477Z,12.50
2023-01-26T12:27:52.550Z,15.93
2023-01-26T12:30:29.853Z,12.60
2023-01-26T12:32:57.912Z,16.63
2023-01-26T12:35:36.686Z,12.77
2023-01-26T12:38:17.557Z,11.83
2023-01-26T12:40:54.978Z,13.77
2023-01-26T12:43:36.686Z,17.83
2023-01-26T12:46:08.017Z,16.90
2023-01-26T12:48:41.337Z,12.20
2023-01-26T12:51:11.750Z,13.63
2023-01-26T12:53:47.035Z,15.27
2023-01-26T12:56:21.719Z,16.90
2023-01-26T12:58:51.743Z,12.43
2023-01-26T13:01:23.911Z,11.30
2023-01-26T13:03:55.317Z,13.67
2023-01-26T13:06:24.824Z,12.10
2023-01-26T13:09:01.427Z,11.83
2023-01-26T13:11:47.076Z,12.03
2023-01-26T13:14:56.746Z,13.67
2023-01-26T13:17:50.693Z,11.87
2023-01-26T13:20:51.744Z,14.30
2023-01-26T13:23:53.113Z,22.20
2023-01-26T13:26:52.013Z,11.00
2023-01-26T13:29:34.640Z,9.97
2023-01-26T13:32:53.346Z,17.10
2023-01-26T13:35:24.403Z,18.53
2023-01-26T13:37:59.296Z,15.77
2023-01-26T13:40:31.839Z,11.17
2023-01-26T13:43:07.654Z,15.43
2023-01-26T13:45:44.122Z,13.30
2023-01-26T13:48:16.266Z,14.60
2023-01-26T13:50:47.176Z,13.63
2023-01-26T13:53:37.487Z,14.60
2023-01-26T13:56:06.984Z,11.77
2023-01-26T13:58:35.262Z,12.13
2023-01-26T14:01:05.772Z,18.40
2023-01-26T14:03:34.268Z,12.10
2023-01-26T14:06:06.203Z,10.73
2023-01-26T14:08:34.686Z,11.77
2023-01-26T14:11:04.483Z,19.53
2023-01-26T14:13:34.952Z,20.57
2023-01-26T14:16:07.713Z,20.07
2023-01-26T14:18:37.322Z,16.07
2023-01-26T14:21:15.084Z,14.97
2023-01-26T14:23:43.007Z,20.33
2023-01-26T14:26:18.494Z,18.70
2023-01-26T14:28:47.014Z,21.27
2023-01-26T14:31:20.974Z,11.50
2023-01-26T14:33:49.437Z,21.70
2023-01-26T14:36:20.536Z,19.07
2023-01-26T14:38:49.595Z,21.17
2023-01-26T14:41:19.985Z,25.93
2023-01-26T14:43:49.955Z,14.67
2023-01-26T14:46:19.411Z,11.70
2023-01-26T14:48:50.754Z,12.20
2023-01-26T14:51:22.463Z,17.40
2023-01-26T14:53:51.331Z,13.77
2023-01-26T14:56:20.280Z,12.17
2023-01-26T14:58:51.971Z,15.33
2023-01-26T15:01:23.862Z,18.53
2023-01-26T15:03:52.500Z,16.00
2023-01-26T15:06:23.917Z,11.50
2023-01-26T15:09:00.480Z,20.43
2023-01-26T15:11:48.669Z,14.63
2023-01-26T15:14:33.284Z,15.70
2023-01-26T15:17:01.347Z,11.87
2023-01-26T15:19:34.343Z,20.43
2023-01-26T15:22:03.656Z,13.10
2023-01-26T15:24:31.608Z,18.73
2023-01-26T15:27:06.789Z,9.73
2023-01-26T15:29:35.234Z,19.37
2023-01-26T15:32:03.448Z,14.47
2023-01-26T15:34:36.402Z,10.20
2023-01-26T15:37:28.493Z,8.50
2023-01-26T15:39:56.448Z,11.17
2023-01-26T15:42:27.680Z,9.93
2023-01-26T15:44:55.843Z,10.93
2023-01-26T15:47:23.793Z,11.07
2023-01-26T15:49:51.742Z,12.67
2023-01-26T15:52:23.429Z,13.17
2023-01-26T15:54:51.839Z,11.07
2023-01-26T15:57:19.912Z,10.97
2023-01-26T15:59:47.806Z,14.80
2023-01-26T16:02:17.536Z,16.57
2023-01-26T16:04:46.255Z,12.20
2023-01-26T16:07:15.573Z,20.37
2023-01-26T16:09:45.064Z,10.03
2023-01-26T16:12:30.341Z,15.47
2023-01-26T16:14:59.315Z,8.93
2023-01-26T16:17:27.251Z,11.57
2023-01-26T16:19:55.180Z,18.80
2023-01-26T16:22:23.106Z,14.47
2023-01-26T16:24:52.401Z,10.40
2023-01-26T16:27:21.691Z,15.90
2023-01-26T16:29:49.600Z,11.53
2023-01-26T16:32:28.629Z,11.40
2023-01-26T16:34:56.621Z,14.17
2023-01-26T16:37:24.564Z,12.23
2023-01-26T16:39:53.843Z,11.07
2023-01-26T16:42:22.271Z,13.37
2023-01-26T16:44:50.247Z,11.27
2023-01-26T16:47:18.174Z,14.20
2023-01-26T16:49:46.115Z,8.57
2023-01-26T16:52:14.068Z,10.60
2023-01-26T16:54:41.967Z,11.67
2023-01-26T16:57:11.252Z,10.20
2023-01-26T16:59:40.129Z,10.40
2023-01-26T17:02:13.409Z,12.67
2023-01-26T17:04:41.340Z,11.03
2023-01-26T17:07:09.248Z,10.00
2023-01-26T17:09:37.147Z,10.63
2023-01-26T17:12:06.295Z,14.53
2023-01-26T17:14:35.615Z,11.60
2023-01-26T17:17:03.631Z,10.77
2023-01-26T17:19:31.520Z,10.47
2023-01-26T17:21:59.478Z,7.40
2023-01-26T17:24:27.430Z,10.20
2023-01-26T17:26:55.436Z,9.77
2023-01-26T17:29:23.319Z,9.13
2023-01-26T17:31:52.707Z,8.10
2023-01-26T17:34:21.555Z,8.83
2023-01-26T17:36:49.454Z,8.37
2023-01-26T17:39:18.804Z,9.80
2023-01-26T17:41:46.769Z,9.03
2023-01-26T17:44:15.278Z,11.83
2023-01-26T17:46:43.319Z,10.67
2023-01-26T17:49:12.617Z,7.37
2023-01-26T17:51:40.582Z,7.80
2023-01-26T17:54:08.494Z,7.23
2023-01-26T17:56:36.399Z,7.10
2023-01-26T17:59:04.397Z,10.50
2023-01-26T18:01:32.334Z,5.67
2023-01-26T18:04:00.265Z,9.27
2023-01-26T18:06:29.716Z,10.57
2023-01-26T18:08:57.856Z,8.87
2023-01-26T18:11:25.790Z,10.37
2023-01-26T18:13:55.421Z,10.77
2023-01-26T18:16:23.496Z,9.20
2023-01-26T18:18:55.710Z,6.03
2023-01-26T18:21:25.024Z,7.17
2023-01-26T18:23:56.082Z,7.90
2023-01-26T18:26:25.756Z,8.07
2023-01-26T18:28:54.775Z,6.93
2023-01-26T18:31:24.403Z,6.43
2023-01-26T18:33:52.692Z,8.27
2023-01-26T18:36:21.893Z,10.20
2023-01-26T18:38:51.579Z,6.67
2023-01-26T18:41:22.232Z,11.20
2023-01-26T18:43:51.914Z,10.00
2023-01-26T18:46:20.307Z,8.03
2023-01-26T18:48:48.243Z,7.33
2023-01-26T18:51:18.220Z,6.13
2023-01-26T18:53:46.334Z,10.83
2023-01-26T18:56:16.376Z,5.70
2023-01-26T18:58:45.686Z,8.27
2023-01-26T19:01:14.953Z,8.67
2023-01-26T19:03:47.305Z,5.30
2023-01-26T19:06:19.919Z,10.70
2023-01-26T19:08:49.011Z,7.37
2023-01-26T19:11:16.925Z,5.80
2023-01-26T19:13:48.814Z,8.00
2023-01-26T19:16:16.971Z,11.13
2023-01-26T19:18:44.938Z,10.97
2023-01-26T19:21:12.957Z,9.13
2023-01-26T19:23:42.746Z,7.30
2023-01-26T19:26:11.898Z,10.70
2023-01-26T19:28:41.510Z,6.50
2023-01-26T19:31:11.433Z,7.70
2023-01-26T19:33:39.572Z,8.40
2023-01-26T19:36:09.282Z,6.23
2023-01-26T19:38:39.368Z,11.70
2023-01-26T19:41:07.747Z,7.77
2023-01-26T19:43:35.729Z,6.87
2023-01-26T19:46:05.576Z,8.07
2023-01-26T19:48:34.943Z,11.77
2023-01-26T19:51:04.504Z,7.90
2023-01-26T19:53:33.383Z,7.33
2023-01-26T19:56:06.286Z,5.37
2023-01-26T19:58:34.231Z,8.07
2023-01-26T20:01:02.766Z,8.50
2023-01-26T20:03:30.781Z,7.53
2023-01-26T20:06:00.130Z,8.50
2023-01-26T20:08:29.246Z,4.83
2023-01-26T20:11:03.930Z,7.53
2023-01-26T20:13:32.047Z,8.10
2023-01-26T20:15:59.924Z,4.43
2023-01-26T20:18:27.851Z,7.70
2023-01-26T20:20:56.964Z,5.90
2023-01-26T20:23:27.477Z,8.97
2023-01-26T20:26:02.267Z,10.63
2023-01-26T20:28:30.541Z,8.97
2023-01-26T20:31:05.259Z,8.40
2023-01-26T20:33:33.651Z,5.83
2023-01-26T20:36:01.579Z,7.40
2023-01-26T20:38:30.902Z,6.63
2023-01-26T20:40:58.843Z,7.90
2023-01-26T20:43:26.735Z,5.90
2023-01-26T20:45:54.694Z,8.20
2023-01-26T20:48:22.611Z,8.67
2023-01-26T20:50:52.606Z,6.80
2023-01-26T20:53:20.975Z,5.63
2023-01-26T20:55:50.255Z,5.93
2023-01-26T20:58:18.213Z,10.00
2023-01-26T21:00:46.158Z,7.23
2023-01-26T21:03:14.175Z,7.37
2023-01-26T21:05:42.171Z,5.57
2023-01-26T21:08:10.075Z,6.20
2023-01-26T21:10:37.991Z,4.63
2023-01-26T21:13:07.382Z,6.47
2023-01-26T21:15:35.279Z,8.70
2023-01-26T21:18:04.088Z,5.30
2023-01-26T21:20:32.044Z,4.70
2023-01-26T21:23:00.219Z,5.07
2023-01-26T21:25:28.172Z,7.40
2023-01-26T21:27:56.169Z,5.87
2023-01-26T21:30:25.460Z,4.83
2023-01-26T21:32:53.839Z,8.17
2023-01-26T21:35:21.730Z,4.27
2023-01-26T21:37:49.791Z,6.83
2023-01-26T21:40:18.341Z,7.57
2023-01-26T21:42:46.234Z,7.50
2023-01-26T21:45:31.791Z,9.10
2023-01-26T21:48:18.535Z,7.53
2023-01-26T21:51:03.893Z,5.40
2023-01-26T21:53:31.779Z,6.07
2023-01-26T21:55:59.665Z,5.97
2023-01-26T21:58:45.206Z,8.80
2023-01-26T22:01:13.164Z,7.60
2023-01-26T22:03:42.481Z,6.60
2023-01-26T22:06:10.396Z,7.53
2023-01-26T22:08:38.322Z,5.17
2023-01-26T22:11:06.576Z,8.83
2023-01-26T22:13:36.161Z,4.97
2023-01-26T22:16:05.014Z,6.97
2023-01-26T22:18:32.997Z,6.53
2023-01-26T22:21:02.969Z,6.10
2023-01-26T22:23:32.506Z,8.23
2023-01-26T22:26:00.425Z,11.83
2023-01-26T22:28:28.295Z,6.90
2023-01-26T22:31:03.005Z,5.20
2023-01-26T22:33:31.313Z,9.40
2023-01-26T22:36:07.681Z,6.47
2023-01-26T22:38:36.416Z,7.37
2023-01-26T22:41:05.579Z,8.27
2023-01-26T22:43:34.580Z,7.00
2023-01-26T22:46:03.872Z,7.60
2023-01-26T22:48:31.861Z,6.83
2023-01-26T22:51:00.104Z,5.73
2023-01-26T22:53:29.956Z,6.03
2023-01-26T22:55:57.869Z,6.90
2023-01-26T22:58:25.831Z,5.97
2023-01-26T23:00:53.813Z,6.63
2023-01-26T23:03:22.602Z,7.00
2023-01-26T23:05:50.547Z,3.80
2023-01-26T23:08:18.465Z,6.67
2023-01-26T23:10:47.730Z,6.57
2023-01-26T23:13:15.700Z,5.17
2023-01-26T23:15:43.595Z,4.93
2023-01-26T23:18:11.462Z,4.87
2023-01-26T23:20:39.378Z,4.40
2023-01-26T23:23:07.254Z,5.63
2023-01-26T23:25:53.119Z,3.93
2023-01-26T23:28:24.079Z,4.80
2023-01-26T23:30:52.886Z,2.93
2023-01-26T23:33:21.973Z,2.33
2023-01-26T23:35:50.311Z,2.97
2023-01-26T23:38:18.486Z,2.00
2023-01-26T23:40:46.557Z,3.07
2023-01-26T23:43:16.917Z,3.17
2023-01-26T23:45:47.540Z,1.90
2023-01-26T23:48:15.953Z,2.67
2023-01-26T23:50:44.016Z,2.53
2023-01-26T23:53:12.374Z,3.87
2023-01-26T23:55:41.298Z,2.70
2023-01-26T23:58:09.240Z,2.67
